Time;durP1;ratioP1;P1;durP2;ratioP2;P2;SDS_P1;SDS_P2;PMS_P1;PMS_P2;Temp;Humidity;BMP_temperature;BMP_pressure;BME280_temperature;BME280_humidity;BME280_pressure;Samples;Min_cycle;Max_cycle;Signal;HPM_P1;HPM_P2
2023/08/25 00:00:36;;;;;;;9.13;7.13;;;20.40;99.40;;;;;;5016179;28;20450;-85
2023/08/25 00:03:02;;;;;;;10.10;7.55;;;20.40;99.50;;;;;;4984086;28;20581;-85
2023/08/25 00:05:28;;;;;;;9.20;7.38;;;20.40;99.60;;;;;;5000535;28;20030;-85
2023/08/25 00:07:53;;;;;;;10.32;7.32;;;20.40;99.70;;;;;;4984703;28;20462;-85
2023/08/25 00:10:19;;;;;;;12.13;7.93;;;20.40;99.80;;;;;;5000581;28;20113;-85
2023/08/25 00:12:46;;;;;;;10.60;8.40;;;20.40;99.80;;;;;;4983681;28;20048;-85
2023/08/25 00:15:12;;;;;;;9.95;8.13;;;20.40;99.90;;;;;;4999743;28;20029;-85
2023/08/25 00:17:38;;;;;;;10.07;8.02;;;20.40;99.90;;;;;;4999529;28;20524;-85
2023/08/25 00:20:08;;;;;;;10.25;8.52;;;20.40;99.90;;;;;;4983319;28;20029;-85
2023/08/25 00:22:37;;;;;;;14.05;9.02;;;20.40;99.90;;;;;;4983757;28;20030;-85
2023/08/25 00:25:03;;;;;;;10.35;8.55;;;20.40;99.90;;;;;;4983207;28;20389;-85
2023/08/25 00:27:28;;;;;;;11.85;9.15;;;20.30;99.90;;;;;;5015633;28;20030;-85
2023/08/25 00:29:54;;;;;;;12.50;9.35;;;20.30;99.90;;;;;;4999231;28;20049;-85
2023/08/25 00:32:20;;;;;;;11.25;9.48;;;20.30;99.90;;;;;;5015740;28;20027;-85
2023/08/25 00:34:45;;;;;;;11.73;9.27;;;20.30;99.90;;;;;;4999226;28;20030;-85
2023/08/25 00:37:11;;;;;;;12.75;10.07;;;20.30;99.90;;;;;;5015633;28;20030;-85
2023/08/25 00:39:38;;;;;;;13.85;9.68;;;20.20;99.90;;;;;;4999075;28;20044;-85
2023/08/25 00:42:04;;;;;;;12.10;9.57;;;20.30;99.90;;;;;;4999216;28;20026;-85
2023/08/25 00:44:30;;;;;;;12.40;9.73;;;20.20;99.90;;;;;;5015652;28;20548;-86
2023/08/25 00:46:56;;;;;;;12.15;10.40;;;20.20;99.90;;;;;;4999054;28;20033;-86
2023/08/25 00:49:23;;;;;;;12.57;10.00;;;20.20;99.90;;;;;;5015486;28;20022;-86
2023/08/25 00:51:52;;;;;;;12.75;9.80;;;20.20;99.90;;;;;;4999041;28;20064;-85
2023/08/25 00:54:25;;;;;;;14.65;10.32;;;20.20;99.90;;;;;;4998950;28;20113;-85
2023/08/25 00:56:51;;;;;;;13.35;9.88;;;20.20;99.90;;;;;;5016471;28;20049;-85
2023/08/25 00:59:17;;;;;;;13.27;9.27;;;20.20;99.90;;;;;;4999136;28;20026;-84
2023/08/25 01:01:44;;;;;;;15.20;11.43;;;20.10;99.90;;;;;;4998802;28;20046;-85
2023/08/25 01:04:10;;;;;;;13.55;10.93;;;20.10;99.90;;;;;;5016683;28;20022;-85
2023/08/25 01:06:37;;;;;;;12.30;10.20;;;20.10;99.90;;;;;;5000621;28;20551;-85
2023/08/25 01:09:04;;;;;;;14.18;10.90;;;20.10;99.90;;;;;;4999892;28;20034;-85
2023/08/25 01:11:38;;;;;;;15.48;11.68;;;20.10;99.90;;;;;;4999497;28;20389;-85
2023/08/25 01:14:23;;;;;;;14.25;12.48;;;20.10;99.90;;;;;;5000155;28;20025;-85
2023/08/25 01:17:23;;;;;;;12.95;11.55;;;20.10;99.90;;;;;;4999910;28;20026;-85
2023/08/25 01:20:06;;;;;;;12.70;11.32;;;20.10;99.90;;;;;;4988892;28;20087;-85
2023/08/25 01:22:38;;;;;;;13.18;11.35;;;20.00;99.90;;;;;;4998391;28;20021;-85
2023/08/25 01:25:24;;;;;;;13.40;11.07;;;20.00;99.90;;;;;;5015039;28;20038;-85
2023/08/25 01:27:51;;;;;;;17.25;12.32;;;20.00;99.90;;;;;;4998452;28;20435;-85
2023/08/25 01:30:17;;;;;;;14.02;12.38;;;20.00;99.90;;;;;;4982072;28;20026;-85
2023/08/25 01:32:43;;;;;;;15.68;12.68;;;19.90;99.90;;;;;;5014522;28;20021;-80
2023/08/25 01:35:12;;;;;;;17.00;14.30;;;19.90;99.90;;;;;;4998014;28;20018;-80
2023/08/25 01:37:50;;;;;;;19.77;14.63;;;19.90;99.90;;;;;;5014233;28;20037;-79
2023/08/25 01:40:33;;;;;;;16.55;14.63;;;19.90;99.90;;;;;;4997639;28;20033;-79
2023/08/25 01:43:00;;;;;;;14.23;12.40;;;19.90;99.90;;;;;;4997936;28;20018;-86
2023/08/25 01:45:26;;;;;;;18.20;14.20;;;19.90;99.90;;;;;;4998088;28;20477;-86
2023/08/25 01:47:54;;;;;;;16.15;14.45;;;19.90;99.90;;;;;;4998032;28;20500;-86
2023/08/25 01:50:21;;;;;;;17.60;14.38;;;19.90;99.90;;;;;;5015505;28;20027;-86
2023/08/25 01:52:47;;;;;;;18.58;14.70;;;20.00;99.90;;;;;;4997893;28;20474;-85
2023/08/25 01:55:13;;;;;;;19.98;14.93;;;20.00;99.90;;;;;;4997946;28;20105;-85
2023/08/25 01:57:39;;;;;;;16.65;14.43;;;20.00;99.90;;;;;;4981517;28;20204;-85
2023/08/25 02:00:05;;;;;;;16.65;14.30;;;20.00;99.90;;;;;;4997903;28;20037;-85
2023/08/25 02:02:30;;;;;;;15.38;12.18;;;20.00;99.90;;;;;;5002376;28;20054;-85
2023/08/25 02:04:56;;;;;;;14.55;12.07;;;20.00;99.90;;;;;;4997663;28;20121;-84
2023/08/25 02:07:23;;;;;;;13.07;11.65;;;20.00;99.90;;;;;;5013885;28;20092;-86
2023/08/25 02:09:48;;;;;;;16.65;12.73;;;20.00;99.90;;;;;;4997677;28;20033;-85
2023/08/25 02:12:14;;;;;;;15.57;13.98;;;20.00;99.90;;;;;;4997397;28;20029;-85
2023/08/25 02:14:39;;;;;;;15.07;13.35;;;20.00;99.90;;;;;;4997502;28;20113;-84
2023/08/25 02:17:05;;;;;;;14.52;13.00;;;20.00;99.90;;;;;;4998380;28;20053;-85
2023/08/25 02:19:31;;;;;;;15.07;12.68;;;20.00;99.90;;;;;;4998222;28;20383;-85
2023/08/25 02:21:57;;;;;;;15.25;13.65;;;20.10;99.90;;;;;;5014900;28;20026;-85
2023/08/25 02:24:22;;;;;;;18.38;15.30;;;20.10;99.90;;;;;;5013852;28;20397;-85
2023/08/25 02:26:49;;;;;;;16.38;14.40;;;20.10;99.90;;;;;;5014002;28;20046;-85
2023/08/25 02:29:14;;;;;;;16.60;13.80;;;20.10;99.90;;;;;;4997468;28;20429;-85
2023/08/25 02:31:40;;;;;;;15.45;13.70;;;20.10;99.90;;;;;;5013596;28;20033;-85
2023/08/25 02:34:06;;;;;;;21.77;15.35;;;20.10;99.90;;;;;;4997273;28;20096;-85
2023/08/25 02:36:31;;;;;;;16.35;14.65;;;20.10;99.90;;;;;;4997037;28;20065;-85
2023/08/25 02:38:57;;;;;;;17.05;14.48;;;20.20;99.90;;;;;;4996904;28;20022;-85
2023/08/25 02:41:22;;;;;;;16.80;15.05;;;20.20;99.90;;;;;;4996831;28;20042;-85
2023/08/25 02:43:48;;;;;;;17.33;14.77;;;20.20;99.90;;;;;;5014656;28;20022;-85
2023/08/25 02:46:14;;;;;;;16.88;14.82;;;20.20;99.90;;;;;;5014420;28;20034;-85
2023/08/25 02:48:39;;;;;;;17.60;15.70;;;20.20;99.90;;;;;;4996613;28;20065;-85
2023/08/25 02:51:05;;;;;;;17.45;15.32;;;20.30;99.90;;;;;;4996923;28;20125;-85
2023/08/25 02:53:31;;;;;;;16.83;14.18;;;20.30;99.90;;;;;;5014524;28;20393;-86
2023/08/25 02:55:56;;;;;;;18.00;16.10;;;20.30;99.90;;;;;;4996740;28;20533;-85
2023/08/25 02:58:22;;;;;;;17.52;15.65;;;20.30;99.90;;;;;;5013061;28;20038;-85
2023/08/25 03:00:48;;;;;;;19.60;15.60;;;20.30;99.90;;;;;;4996455;28;20124;-84
2023/08/25 03:03:13;;;;;;;18.05;16.23;;;20.30;99.90;;;;;;4996329;28;20073;-85
2023/08/25 03:05:40;;;;;;;17.63;15.73;;;20.30;99.90;;;;;;4996757;28;20050;-85
2023/08/25 03:08:11;;;;;;;16.50;14.68;;;20.30;99.90;;;;;;4996458;28;20042;-85
2023/08/25 03:10:37;;;;;;;16.98;15.23;;;20.30;99.90;;;;;;4997116;28;20029;-85
2023/08/25 03:13:03;;;;;;;19.20;15.55;;;20.40;99.90;;;;;;4996442;28;20041;-84
2023/08/25 03:15:28;;;;;;;18.73;15.32;;;20.40;99.90;;;;;;4996285;28;20026;-84
2023/08/25 03:17:54;;;;;;;17.88;15.93;;;20.40;99.90;;;;;;4996282;28;20022;-84
2023/08/25 03:20:20;;;;;;;17.65;15.40;;;20.40;99.90;;;;;;4996129;28;20084;-85
2023/08/25 03:22:45;;;;;;;18.48;15.90;;;20.40;99.90;;;;;;4996497;28;20493;-85
2023/08/25 03:25:11;;;;;;;17.92;15.73;;;20.40;99.90;;;;;;4996595;28;20136;-85
2023/08/25 03:27:37;;;;;;;19.27;16.20;;;20.40;99.90;;;;;;4980045;28;20072;-85
2023/08/25 03:30:04;;;;;;;21.80;17.23;;;20.40;99.90;;;;;;5012321;28;20042;-85
2023/08/25 03:32:30;;;;;;;22.35;17.20;;;20.40;99.90;;;;;;4996333;28;20027;-85
2023/08/25 03:34:56;;;;;;;19.48;17.38;;;20.40;99.90;;;;;;5012110;28;20026;-79
2023/08/25 03:37:21;;;;;;;23.90;18.60;;;20.40;99.90;;;;;;4996112;28;20025;-79
2023/08/25 03:39:47;;;;;;;20.30;18.13;;;20.40;99.90;;;;;;4995896;28;20394;-79
2023/08/25 03:42:13;;;;;;;22.25;18.75;;;20.40;99.90;;;;;;4995927;28;20371;-78
2023/08/25 03:44:39;;;;;;;22.38;19.70;;;20.50;99.90;;;;;;4995852;28;20056;-79
2023/08/25 03:47:04;;;;;;;24.58;19.48;;;20.50;99.90;;;;;;4995973;28;20141;-79
2023/08/25 03:49:32;;;;;;;23.05;19.33;;;20.50;99.90;;;;;;4995997;28;20037;-85
2023/08/25 03:51:58;;;;;;;23.75;20.30;;;20.50;99.90;;;;;;4980171;28;20030;-86
2023/08/25 03:54:24;;;;;;;22.80;20.33;;;20.50;99.90;;;;;;4996206;28;20026;-85
2023/08/25 03:56:49;;;;;;;24.92;20.55;;;20.50;99.90;;;;;;5013069;28;20026;-85
2023/08/25 03:59:15;;;;;;;23.95;20.42;;;20.50;99.90;;;;;;4997076;28;20057;-79
2023/08/25 04:01:41;;;;;;;24.63;20.40;;;20.50;99.90;;;;;;4979398;28;20029;-79
2023/08/25 04:04:07;;;;;;;24.00;21.27;;;20.50;99.90;;;;;;4979587;28;20026;-79
2023/08/25 04:06:32;;;;;;;22.58;19.77;;;20.50;99.90;;;;;;4995558;28;20030;-79
2023/08/25 04:08:58;;;;;;;26.17;22.80;;;20.50;99.90;;;;;;5011939;28;20022;-79
2023/08/25 04:11:24;;;;;;;22.95;20.25;;;20.50;99.90;;;;;;4994675;28;20029;-79
2023/08/25 04:13:50;;;;;;;24.77;20.48;;;20.50;99.90;;;;;;4991963;28;20034;-79
2023/08/25 04:16:15;;;;;;;27.85;20.77;;;20.50;99.90;;;;;;4961853;28;20068;-79
2023/08/25 04:18:41;;;;;;;25.25;20.73;;;20.50;99.90;;;;;;4994023;28;20030;-79
2023/08/25 04:21:07;;;;;;;25.55;21.02;;;20.50;99.90;;;;;;4978473;28;20060;-79
2023/08/25 04:23:32;;;;;;;25.88;20.55;;;20.50;99.90;;;;;;4962347;28;20124;-79
2023/08/25 04:25:58;;;;;;;25.27;21.38;;;20.50;99.90;;;;;;4978643;28;20109;-79
2023/08/25 04:28:25;;;;;;;24.80;21.33;;;20.50;99.90;;;;;;4995502;28;20025;-79
2023/08/25 04:30:54;;;;;;;24.92;21.25;;;20.60;99.90;;;;;;5012969;28;20068;-79
2023/08/25 04:33:20;;;;;;;24.30;20.80;;;20.50;99.90;;;;;;4963415;28;20482;-79
2023/08/25 04:35:46;;;;;;;22.50;20.08;;;20.50;99.90;;;;;;5011974;28;20083;-88
2023/08/25 04:38:11;;;;;;;24.58;21.33;;;20.60;99.90;;;;;;4964120;28;20026;-88
2023/08/25 04:40:37;;;;;;;24.73;21.10;;;20.50;99.90;;;;;;4996488;28;20034;-88
2023/08/25 04:43:05;;;;;;;25.42;20.35;;;20.60;99.90;;;;;;4996532;28;20084;-88
2023/08/25 04:45:31;;;;;;;22.40;19.30;;;20.60;99.90;;;;;;4997580;28;20029;-88
2023/08/25 04:47:56;;;;;;;23.23;19.75;;;20.60;99.90;;;;;;5017557;28;20401;-88
2023/08/25 04:50:22;;;;;;;23.38;18.67;;;20.60;99.90;;;;;;4983849;28;20382;-88
2023/08/25 04:52:48;;;;;;;20.52;18.05;;;20.60;99.90;;;;;;4983922;28;20028;-87
2023/08/25 04:55:13;;;;;;;21.25;19.02;;;20.60;99.90;;;;;;4984153;28;20458;-88
2023/08/25 04:57:41;;;;;;;23.98;19.88;;;20.60;99.90;;;;;;4967995;28;20038;-88
2023/08/25 05:00:08;;;;;;;24.83;19.55;;;20.60;99.90;;;;;;4983922;28;20084;-88
2023/08/25 05:02:34;;;;;;;22.33;18.67;;;20.60;99.90;;;;;;4983954;28;20099;-88
2023/08/25 05:05:02;;;;;;;20.88;18.25;;;20.60;99.90;;;;;;4967570;28;20034;-88
2023/08/25 05:07:28;;;;;;;22.67;18.73;;;20.60;99.90;;;;;;5000488;28;20034;-87
2023/08/25 05:09:54;;;;;;;22.02;19.50;;;20.70;99.90;;;;;;4983351;28;20053;-88
2023/08/25 05:12:19;;;;;;;23.00;19.10;;;20.60;99.90;;;;;;4999738;28;20026;-88
2023/08/25 05:14:45;;;;;;;24.17;20.10;;;20.60;99.90;;;;;;5000555;28;20037;-87
2023/08/25 05:17:11;;;;;;;22.88;18.20;;;20.70;99.90;;;;;;5000589;28;20041;-88
2023/08/25 05:19:37;;;;;;;25.88;20.85;;;20.60;99.90;;;;;;4968778;28;20433;-88
2023/08/25 05:22:02;;;;;;;21.63;18.77;;;20.70;99.90;;;;;;5000661;28;20070;-88
2023/08/25 05:24:28;;;;;;;21.67;18.73;;;20.70;99.90;;;;;;4984445;28;20116;-88
2023/08/25 05:26:55;;;;;;;25.30;21.02;;;20.70;99.90;;;;;;5000407;28;20488;-87
2023/08/25 05:29:25;;;;;;;23.90;20.30;;;20.70;99.90;;;;;;4999478;28;20486;-88
2023/08/25 05:31:51;;;;;;;21.27;18.85;;;20.70;99.90;;;;;;4984082;28;20022;-88
2023/08/25 05:34:17;;;;;;;21.92;19.58;;;20.70;99.90;;;;;;5000743;28;20608;-88
2023/08/25 05:36:43;;;;;;;25.60;20.08;;;20.80;99.90;;;;;;5016225;28;20048;-88
2023/08/25 05:39:09;;;;;;;25.10;20.13;;;20.80;99.90;;;;;;5016384;28;20056;-88
2023/08/25 05:41:34;;;;;;;22.83;20.40;;;20.90;99.90;;;;;;5016521;28;20029;-88
2023/08/25 05:44:01;;;;;;;26.20;20.77;;;20.90;99.90;;;;;;5016666;28;20026;-90
2023/08/25 05:46:29;;;;;;;21.23;18.88;;;20.90;99.90;;;;;;5017156;28;20033;-89
2023/08/25 05:48:55;;;;;;;23.73;20.13;;;20.90;99.90;;;;;;5016852;28;20428;-89
2023/08/25 05:51:21;;;;;;;23.25;20.85;;;20.90;99.90;;;;;;5017762;28;20026;-89
2023/08/25 05:53:47;;;;;;;22.77;19.98;;;20.90;99.90;;;;;;5016552;28;20053;-89
2023/08/25 05:56:13;;;;;;;22.88;20.42;;;21.00;99.90;;;;;;5017013;28;20117;-90
2023/08/25 05:58:38;;;;;;;26.17;21.63;;;21.00;99.90;;;;;;5014874;28;20121;-89
2023/08/25 06:01:04;;;;;;;24.35;19.23;;;21.10;99.90;;;;;;5015458;28;20113;-88
2023/08/25 06:03:30;;;;;;;22.10;18.50;;;21.10;99.90;;;;;;5014653;28;20064;-79
2023/08/25 06:05:56;;;;;;;21.75;18.58;;;21.10;99.90;;;;;;5013895;28;20026;-78
2023/08/25 06:08:21;;;;;;;22.08;19.67;;;21.20;99.90;;;;;;4997589;28;20377;-79
2023/08/25 06:10:49;;;;;;;23.38;19.60;;;21.10;99.90;;;;;;5013605;28;20034;-79
2023/08/25 06:13:15;;;;;;;22.27;19.48;;;21.20;99.90;;;;;;5013612;28;20484;-79
2023/08/25 06:15:41;;;;;;;23.50;20.45;;;21.20;99.90;;;;;;5030034;28;20053;-79
2023/08/25 06:18:06;;;;;;;23.67;20.05;;;21.20;99.90;;;;;;4997187;28;20121;-79
2023/08/25 06:20:32;;;;;;;24.67;19.42;;;21.20;99.90;;;;;;4997179;28;20029;-79
2023/08/25 06:22:58;;;;;;;22.60;18.80;;;21.20;99.90;;;;;;4996926;28;20042;-79
2023/08/25 06:25:24;;;;;;;21.95;18.95;;;21.30;99.90;;;;;;4979077;28;20027;-79
2023/08/25 06:27:50;;;;;;;24.50;19.35;;;21.30;99.90;;;;;;4986398;28;20092;-78
2023/08/25 06:30:17;;;;;;;25.77;21.25;;;21.30;99.90;;;;;;4997083;28;20038;-79
2023/08/25 06:32:43;;;;;;;23.15;19.42;;;21.30;99.90;;;;;;5030528;28;20021;-79
2023/08/25 06:35:12;;;;;;;22.55;19.10;;;21.30;99.90;;;;;;5027687;28;20072;-79
2023/08/25 06:37:38;;;;;;;23.02;18.95;;;21.30;99.90;;;;;;4981034;28;20029;-79
2023/08/25 06:40:05;;;;;;;24.88;21.67;;;21.30;99.90;;;;;;5013248;28;20076;-78
2023/08/25 06:42:31;;;;;;;24.90;21.02;;;21.30;99.90;;;;;;4996759;28;20107;-79
2023/08/25 06:44:57;;;;;;;29.05;22.67;;;21.20;99.90;;;;;;4996734;28;20029;-79
2023/08/25 06:47:24;;;;;;;29.70;25.75;;;21.30;99.90;;;;;;4977279;28;20046;-77
2023/08/25 06:49:50;;;;;;;33.47;28.17;;;21.30;99.90;;;;;;5005608;28;20030;-80
2023/08/25 06:52:15;;;;;;;39.30;31.30;;;21.30;99.90;;;;;;4980859;28;20022;-80
2023/08/25 06:54:41;;;;;;;43.25;37.60;;;21.20;99.90;;;;;;4964447;28;20029;-80
2023/08/25 06:57:07;;;;;;;43.65;38.60;;;21.20;99.90;;;;;;4964216;28;20029;-80
2023/08/25 06:59:33;;;;;;;49.10;41.92;;;21.20;99.90;;;;;;4996519;28;20034;-80
2023/08/25 07:01:58;;;;;;;44.50;39.58;;;21.20;99.90;;;;;;4980268;28;20130;-80
2023/08/25 07:04:25;;;;;;;47.50;40.92;;;21.20;99.90;;;;;;4996291;28;20034;-80
2023/08/25 07:06:50;;;;;;;44.85;38.70;;;21.20;99.90;;;;;;5013612;28;20026;-80
2023/08/25 07:09:17;;;;;;;43.53;38.83;;;21.20;99.90;;;;;;5013374;28;20033;-81
2023/08/25 07:11:43;;;;;;;44.05;36.45;;;21.20;99.90;;;;;;4996378;28;20026;-81
2023/08/25 07:14:09;;;;;;;38.88;31.92;;;21.20;99.90;;;;;;4996317;28;20103;-81
2023/08/25 07:16:38;;;;;;;36.58;30.75;;;21.30;99.90;;;;;;4980230;28;20481;-81
2023/08/25 07:19:04;;;;;;;37.30;30.05;;;21.30;99.90;;;;;;4992105;28;20033;-80
2023/08/25 07:21:29;;;;;;;32.70;26.98;;;21.30;99.90;;;;;;4995929;28;20534;-81
2023/08/25 07:23:55;;;;;;;31.25;26.00;;;21.20;99.90;;;;;;4980283;28;20026;-81
2023/08/25 07:26:22;;;;;;;26.85;23.67;;;21.20;99.90;;;;;;4979913;28;20026;-81
2023/08/25 07:28:48;;;;;;;29.70;24.48;;;21.20;99.90;;;;;;4979431;28;20054;-81
2023/08/25 07:31:13;;;;;;;33.72;24.85;;;21.20;99.90;;;;;;5013193;28;20140;-81
2023/08/25 07:33:41;;;;;;;24.90;21.75;;;21.20;99.90;;;;;;4995810;28;20051;-81
2023/08/25 07:36:09;;;;;;;28.27;22.25;;;21.20;99.90;;;;;;5013681;28;20374;-81
2023/08/25 07:38:35;;;;;;;28.58;21.52;;;21.20;99.90;;;;;;4979884;28;20022;-80
2023/08/25 07:41:01;;;;;;;25.85;20.77;;;21.20;99.90;;;;;;5012589;28;20068;-81
2023/08/25 07:43:27;;;;;;;26.77;20.33;;;21.20;99.90;;;;;;5012349;28;20498;-81
2023/08/25 07:45:54;;;;;;;26.65;21.65;;;21.20;99.90;;;;;;4995927;28;20666;-81
2023/08/25 07:48:20;;;;;;;24.63;20.77;;;21.00;99.90;;;;;;5012084;28;20033;-81
2023/08/25 07:50:46;;;;;;;25.58;20.05;;;21.20;99.90;;;;;;5012127;28;20030;-81
2023/08/25 07:53:13;;;;;;;27.08;21.35;;;21.20;99.90;;;;;;4979613;28;20583;-81
2023/08/25 07:55:40;;;;;;;26.80;20.88;;;21.20;99.90;;;;;;5012206;28;20050;-81
2023/08/25 07:58:09;;;;;;;28.45;20.30;;;21.30;99.90;;;;;;5013399;28;20496;-80
2023/08/25 08:00:37;;;;;;;25.20;19.85;;;21.30;99.90;;;;;;5012167;28;20029;-81
2023/08/25 08:03:03;;;;;;;21.80;18.23;;;21.30;99.90;;;;;;5013218;28;20125;-81
2023/08/25 08:05:29;;;;;;;23.25;18.70;;;21.30;99.90;;;;;;4996028;28;20034;-81
2023/08/25 08:07:55;;;;;;;21.15;17.95;;;21.30;99.90;;;;;;5012279;28;20046;-81
2023/08/25 08:10:21;;;;;;;23.17;19.58;;;21.30;99.90;;;;;;5012318;28;20060;-81
2023/08/25 08:12:47;;;;;;;22.30;19.42;;;21.30;99.90;;;;;;5012242;28;20385;-81
2023/08/25 08:15:13;;;;;;;22.88;19.25;;;21.20;99.90;;;;;;4979324;28;20038;-82
2023/08/25 08:17:39;;;;;;;22.30;17.90;;;21.20;99.90;;;;;;5011780;28;20046;-81
2023/08/25 08:20:07;;;;;;;25.00;20.83;;;21.20;99.90;;;;;;4996096;28;20026;-85
2023/08/25 08:22:32;;;;;;;29.85;22.70;;;21.20;99.90;;;;;;5017342;28;20026;-81
2023/08/25 08:24:58;;;;;;;32.55;22.63;;;21.10;99.90;;;;;;4999273;28;20026;-81
2023/08/25 08:27:25;;;;;;;33.17;22.20;;;20.90;99.90;;;;;;4999434;28;20069;-78
2023/08/25 08:29:51;;;;;;;56.70;25.13;;;20.80;99.90;;;;;;4999171;28;20018;-77
2023/08/25 08:32:17;;;;;;;44.15;26.50;;;20.60;99.90;;;;;;4999737;28;20378;-78
2023/08/25 08:34:43;;;;;;;45.35;25.90;;;20.60;99.90;;;;;;5015646;28;20022;-79
2023/08/25 08:37:09;;;;;;;41.70;24.00;;;20.50;99.90;;;;;;4998459;28;20026;-78
2023/08/25 08:39:39;;;;;;;40.55;25.10;;;20.50;99.90;;;;;;4982387;28;20117;-77
2023/08/25 08:42:09;;;;;;;37.42;24.25;;;20.50;99.90;;;;;;4998359;28;20022;-77
2023/08/25 08:44:36;;;;;;;48.00;25.58;;;20.50;99.90;;;;;;4980876;28;20029;-77
2023/08/25 08:47:06;;;;;;;41.92;27.00;;;20.50;99.90;;;;;;4998979;28;20533;-77
2023/08/25 08:49:33;;;;;;;42.72;26.33;;;20.50;99.90;;;;;;5016476;28;20014;-79
2023/08/25 08:52:01;;;;;;;43.35;29.65;;;20.50;99.90;;;;;;5015414;28;20366;-76
2023/08/25 08:54:28;;;;;;;42.88;28.83;;;20.50;99.90;;;;;;5015100;28;20101;-76
2023/08/25 08:56:54;;;;;;;47.30;30.40;;;20.40;99.90;;;;;;5015709;28;20030;-77
2023/08/25 08:59:20;;;;;;;45.38;29.17;;;20.30;99.90;;;;;;5015882;28;20025;-77
2023/08/25 09:01:48;;;;;;;49.72;28.50;;;20.30;99.90;;;;;;4998266;28;20111;-76
2023/08/25 09:04:18;;;;;;;47.47;28.30;;;20.30;99.90;;;;;;4998564;28;20171;-76
2023/08/25 09:06:46;;;;;;;41.92;27.08;;;20.20;99.90;;;;;;5016198;28;20029;-77
2023/08/25 09:09:14;;;;;;;40.53;27.63;;;20.30;99.90;;;;;;4982566;28;20390;-77
2023/08/25 09:11:40;;;;;;;42.05;25.63;;;20.20;99.90;;;;;;4998785;28;20025;-76
2023/08/25 09:14:07;;;;;;;42.25;25.50;;;20.20;99.90;;;;;;4998924;28;20465;-76
2023/08/25 09:16:35;;;;;;;41.47;24.95;;;20.20;99.90;;;;;;5016139;28;20049;-76
2023/08/25 09:19:03;;;;;;;36.17;24.00;;;20.20;99.90;;;;;;5016012;28;20076;-76
2023/08/25 09:21:29;;;;;;;32.95;22.63;;;20.30;99.90;;;;;;4997926;28;20030;-77
2023/08/25 09:23:56;;;;;;;36.60;23.50;;;20.20;99.90;;;;;;4997754;28;20142;-75
2023/08/25 09:26:22;;;;;;;35.17;23.25;;;20.20;99.90;;;;;;4997627;28;20030;-76
2023/08/25 09:28:50;;;;;;;37.25;24.00;;;20.20;99.90;;;;;;4998076;28;20035;-77
2023/08/25 09:31:24;;;;;;;33.33;23.27;;;20.10;99.90;;;;;;4998110;28;20022;-77
2023/08/25 09:33:52;;;;;;;29.65;21.77;;;20.10;99.90;;;;;;5013326;28;20022;-78
2023/08/25 09:36:18;;;;;;;32.08;21.42;;;20.00;99.90;;;;;;4997990;28;20500;-77
2023/08/25 09:38:46;;;;;;;28.17;20.00;;;20.00;99.90;;;;;;4997861;28;20026;-77
2023/08/25 09:41:11;;;;;;;30.25;20.88;;;20.00;99.90;;;;;;5014232;28;20072;-77
2023/08/25 09:43:39;;;;;;;25.35;18.77;;;20.00;99.90;;;;;;4995895;28;20128;-77
2023/08/25 09:46:08;;;;;;;26.45;17.75;;;20.00;99.90;;;;;;4997316;28;20061;-78
2023/08/25 09:48:35;;;;;;;24.15;17.25;;;20.00;99.90;;;;;;5012901;28;20018;-77
2023/08/25 09:51:01;;;;;;;22.63;16.65;;;20.00;99.90;;;;;;4965152;28;20084;-78
2023/08/25 09:53:33;;;;;;;21.48;16.58;;;20.00;99.90;;;;;;4996047;28;20453;-80
2023/08/25 09:56:05;;;;;;;22.95;15.80;;;19.90;99.90;;;;;;5007822;28;20378;-82
2023/08/25 09:58:33;;;;;;;19.90;15.15;;;19.90;99.90;;;;;;4999302;28;20118;-80
2023/08/25 10:00:59;;;;;;;21.65;15.70;;;19.90;99.90;;;;;;4993000;28;20018;-81
2023/08/25 10:03:25;;;;;;;18.27;14.57;;;19.90;99.90;;;;;;4998070;28;20064;-83
2023/08/25 10:05:50;;;;;;;18.88;14.60;;;19.90;99.90;;;;;;4973533;28;20062;-82
2023/08/25 10:08:17;;;;;;;18.23;14.27;;;20.00;99.90;;;;;;4980571;28;20072;-83
2023/08/25 10:10:44;;;;;;;18.83;13.95;;;20.00;99.90;;;;;;5015278;28;20049;-83
2023/08/25 10:13:14;;;;;;;18.80;14.55;;;20.00;99.90;;;;;;4994561;28;20029;-83
2023/08/25 10:15:42;;;;;;;18.63;13.55;;;19.90;99.90;;;;;;5007143;28;20026;-83
2023/08/25 10:18:08;;;;;;;16.50;12.93;;;19.80;99.90;;;;;;5004340;28;20022;-82
2023/08/25 10:20:38;;;;;;;18.90;14.77;;;19.80;99.90;;;;;;5012443;28;20030;-82
2023/08/25 10:23:04;;;;;;;20.40;16.00;;;19.80;99.90;;;;;;4994874;28;20057;-83
2023/08/25 10:25:31;;;;;;;18.20;14.63;;;19.90;99.90;;;;;;5009932;28;20029;-83
2023/08/25 10:27:59;;;;;;;19.33;16.02;;;20.00;99.90;;;;;;4980183;28;20033;-83
2023/08/25 10:30:26;;;;;;;16.40;13.88;;;20.20;99.90;;;;;;4998271;28;20117;-83
2023/08/25 10:33:17;;;;;;;16.02;13.13;;;20.50;99.90;;;;;;5014133;28;20075;-84
2023/08/25 10:35:48;;;;;;;14.60;12.38;;;20.60;99.90;;;;;;4994951;28;20053;-78
2023/08/25 10:38:20;;;;;;;16.20;12.77;;;20.80;99.90;;;;;;4995675;28;20494;-79
2023/08/25 10:41:11;;;;;;;15.98;12.70;;;20.90;99.90;;;;;;4981753;28;20034;-76
2023/08/25 10:43:37;;;;;;;16.80;13.15;;;21.00;99.90;;;;;;4994465;28;20029;-78
2023/08/25 10:46:10;;;;;;;13.73;11.75;;;21.00;99.90;;;;;;4977417;28;20085;-77
2023/08/25 10:48:40;;;;;;;14.20;11.75;;;21.10;99.90;;;;;;4999935;28;20389;-77
2023/08/25 10:51:16;;;;;;;17.48;12.82;;;21.10;99.90;;;;;;4977347;28;20026;-77
2023/08/25 10:53:44;;;;;;;15.05;12.65;;;21.20;99.90;;;;;;5007382;28;20018;-78
2023/08/25 10:56:22;;;;;;;13.73;11.23;;;21.30;99.90;;;;;;4977767;28;20470;-77
2023/08/25 10:59:05;;;;;;;11.93;10.25;;;21.40;99.90;;;;;;4996298;28;20109;-77
2023/08/25 11:01:37;;;;;;;11.93;9.20;;;21.40;99.90;;;;;;4980288;28;20029;-78
2023/08/25 11:04:11;;;;;;;9.73;7.85;;;21.50;99.90;;;;;;5005790;28;20053;-77
2023/08/25 11:06:46;;;;;;;8.20;6.97;;;21.50;99.90;;;;;;4988773;28;20032;-77
2023/08/25 11:09:18;;;;;;;8.40;6.00;;;21.50;99.90;;;;;;4995451;28;20022;-78
2023/08/25 11:11:45;;;;;;;7.72;6.00;;;21.40;99.90;;;;;;4981252;28;20489;-77
2023/08/25 11:14:13;;;;;;;8.77;6.90;;;21.40;99.90;;;;;;5004109;28;20088;-78
2023/08/25 11:16:40;;;;;;;10.90;8.73;;;21.40;99.90;;;;;;4980038;28;20033;-78
2023/08/25 11:19:09;;;;;;;14.18;11.63;;;21.40;99.90;;;;;;4996811;28;20080;-79
2023/08/25 11:21:35;;;;;;;14.93;12.15;;;21.30;99.90;;;;;;4963246;28;20030;-77
2023/08/25 11:24:01;;;;;;;15.73;12.65;;;21.30;99.90;;;;;;5005925;28;20049;-78
2023/08/25 11:26:26;;;;;;;13.93;12.40;;;21.20;99.90;;;;;;4986086;28;20026;-78
2023/08/25 11:28:53;;;;;;;15.15;13.55;;;21.10;99.90;;;;;;5013371;28;20022;-77
2023/08/25 11:31:25;;;;;;;16.67;13.70;;;21.10;99.90;;;;;;4979242;28;20034;-77
2023/08/25 11:33:52;;;;;;;16.70;14.95;;;21.10;99.90;;;;;;4976154;28;20114;-77
2023/08/25 11:36:18;;;;;;;18.67;16.17;;;21.20;99.90;;;;;;4988990;28;20014;-79
2023/08/25 11:38:49;;;;;;;16.77;13.68;;;21.30;99.90;;;;;;4979240;28;20405;-79
2023/08/25 11:41:15;;;;;;;16.42;14.60;;;21.50;99.90;;;;;;4948394;28;20161;-78
2023/08/25 11:43:43;;;;;;;18.08;13.98;;;21.50;99.90;;;;;;4992041;28;21074;-79
2023/08/25 11:46:09;;;;;;;16.98;15.27;;;21.60;99.90;;;;;;4976165;28;20081;-79
2023/08/25 11:48:36;;;;;;;17.25;15.38;;;21.50;99.90;;;;;;4993635;28;20096;-86
2023/08/25 11:51:02;;;;;;;17.75;15.15;;;21.40;99.90;;;;;;4967169;28;20489;-85
2023/08/25 11:53:27;;;;;;;19.60;15.68;;;21.50;99.90;;;;;;4992539;28;20034;-85
2023/08/25 11:56:04;;;;;;;17.13;15.32;;;21.50;99.90;;;;;;4980130;28;20505;-86
2023/08/25 11:58:31;;;;;;;16.73;14.80;;;21.60;99.90;;;;;;4998595;28;20034;-84
2023/08/25 12:01:10;;;;;;;16.27;14.57;;;21.50;99.90;;;;;;4983744;28;20158;-84
2023/08/25 12:03:37;;;;;;;17.02;15.20;;;21.40;99.90;;;;;;4997870;28;20050;-83
2023/08/25 12:06:07;;;;;;;19.45;17.38;;;21.40;99.90;;;;;;5010246;28;20100;-82
2023/08/25 12:08:34;;;;;;;20.33;18.08;;;21.40;99.90;;;;;;4980478;28;20055;-82
2023/08/25 12:11:01;;;;;;;16.65;14.57;;;21.40;99.90;;;;;;4983175;28;20031;-82
2023/08/25 12:13:30;;;;;;;18.85;16.95;;;21.40;99.90;;;;;;4990904;28;20072;-82
2023/08/25 12:15:58;;;;;;;19.05;17.05;;;21.40;99.90;;;;;;4997687;28;20577;-85
2023/08/25 12:18:33;;;;;;;16.67;14.85;;;21.40;99.90;;;;;;4997661;28;20026;-83
2023/08/25 12:20:59;;;;;;;17.15;14.90;;;21.50;99.90;;;;;;4983783;28;20040;-85
2023/08/25 12:23:40;;;;;;;18.98;16.95;;;21.50;99.90;;;;;;4998103;28;20077;-84
2023/08/25 12:26:09;;;;;;;18.52;16.55;;;21.50;99.90;;;;;;5016711;28;20030;-83
2023/08/25 12:28:35;;;;;;;20.23;18.08;;;21.70;99.90;;;;;;4982186;28;20030;-83